sensor_id;sensor_type;location;lat;lon;timestamp;pressure;altitude;pressure_sealevel;temperature;humidity
804;BME280;25687;49.976;8.240;2024-01-25T00:00:14;101230.56;;;7.30;100.00
804;BME280;25687;49.976;8.240;2024-01-25T00:02:40;101228.16;;;7.24;100.00
804;BME280;25687;49.976;8.240;2024-01-25T00:05:05;101231.06;;;7.08;100.00
804;BME280;25687;49.976;8.240;2024-01-25T00:07:31;101226.72;;;7.12;100.00
804;BME280;25687;49.976;8.240;2024-01-25T00:09:57;101226.59;;;7.17;100.00
804;BME280;25687;49.976;8.240;2024-01-25T00:12:23;101219.56;;;7.26;100.00
804;BME280;25687;49.976;8.240;2024-01-25T00:14:48;101230.00;;;7.17;100.00
804;BME280;25687;49.976;8.240;2024-01-25T00:17:13;101227.34;;;7.22;100.00
804;BME280;25687;49.976;8.240;2024-01-25T00:19:39;101229.28;;;7.12;100.00
804;BME280;25687;49.976;8.240;2024-01-25T00:22:06;101228.41;;;7.11;100.00
804;BME280;25687;49.976;8.240;2024-01-25T00:24:32;101228.41;;;7.11;100.00
804;BME280;25687;49.976;8.240;2024-01-25T00:26:57;101229.06;;;7.21;100.00
804;BME280;25687;49.976;8.240;2024-01-25T00:29:23;101235.09;;;7.19;100.00
804;BME280;25687;49.976;8.240;2024-01-25T00:31:48;101232.53;;;7.19;100.00
804;BME280;25687;49.976;8.240;2024-01-25T00:34:13;101228.41;;;7.11;100.00
804;BME280;25687;49.976;8.240;2024-01-25T00:36:39;101230.97;;;7.11;100.00
804;BME280;25687;49.976;8.240;2024-01-25T00:39:04;101228.50;;;7.08;100.00
804;BME280;25687;49.976;8.240;2024-01-25T00:41:31;101223.38;;;7.08;100.00
804;BME280;25687;49.976;8.240;2024-01-25T00:43:57;101225.16;;;7.05;100.00
804;BME280;25687;49.976;8.240;2024-01-25T00:46:23;101225.38;;;6.94;100.00
804;BME280;25687;49.976;8.240;2024-01-25T00:48:48;101226.91;;;7.03;100.00
804;BME280;25687;49.976;8.240;2024-01-25T00:51:15;101233.88;;;6.94;100.00
804;BME280;25687;49.976;8.240;2024-01-25T00:53:46;101223.69;;;6.93;100.00
804;BME280;25687;49.976;8.240;2024-01-25T00:56:11;101211.94;;;6.84;100.00
804;BME280;25687;49.976;8.240;2024-01-25T00:58:37;101217.06;;;6.84;100.00
804;BME280;25687;49.976;8.240;2024-01-25T01:01:03;101227.16;;;6.90;100.00
804;BME280;25687;49.976;8.240;2024-01-25T01:03:28;101215.38;;;6.85;100.00
804;BME280;25687;49.976;8.240;2024-01-25T01:05:54;101214.25;;;6.97;100.00
804;BME280;25687;49.976;8.240;2024-01-25T01:08:19;101221.78;;;7.03;100.00
804;BME280;25687;49.976;8.240;2024-01-25T01:10:45;101224.22;;;7.09;100.00
804;BME280;25687;49.976;8.240;2024-01-25T01:13:10;101225.63;;;7.22;100.00
804;BME280;25687;49.976;8.240;2024-01-25T01:15:35;101230.75;;;7.22;100.00
804;BME280;25687;49.976;8.240;2024-01-25T01:18:00;101233.34;;;7.19;100.00
804;BME280;25687;49.976;8.240;2024-01-25T01:20:26;101236.72;;;7.21;100.00
804;BME280;25687;49.976;8.240;2024-01-25T01:22:51;101244.31;;;7.26;100.00
804;BME280;25687;49.976;8.240;2024-01-25T01:25:17;101246.88;;;7.26;100.00
804;BME280;25687;49.976;8.240;2024-01-25T01:27:42;101256.13;;;7.32;100.00
804;BME280;25687;49.976;8.240;2024-01-25T01:30:07;101248.75;;;7.18;100.00
804;BME280;25687;49.976;8.240;2024-01-25T01:32:33;101258.06;;;7.22;100.00
804;BME280;25687;49.976;8.240;2024-01-25T01:34:58;101251.25;;;7.21;100.00
804;BME280;25687;49.976;8.240;2024-01-25T01:37:24;101245.53;;;7.09;100.00
804;BME280;25687;49.976;8.240;2024-01-25T01:39:49;101244.63;;;7.12;100.00
804;BME280;25687;49.976;8.240;2024-01-25T01:42:14;101255.72;;;7.11;100.00
804;BME280;25687;49.976;8.240;2024-01-25T01:44:39;101258.16;;;7.17;100.00
804;BME280;25687;49.976;8.240;2024-01-25T01:47:05;101269.44;;;7.08;100.00
804;BME280;25687;49.976;8.240;2024-01-25T01:49:30;101272.25;;;6.94;100.00
804;BME280;25687;49.976;8.240;2024-01-25T01:51:55;101268.09;;;6.90;100.00
804;BME280;25687;49.976;8.240;2024-01-25T01:54:21;101267.34;;;6.85;100.00
804;BME280;25687;49.976;8.240;2024-01-25T01:56:47;101259.63;;;6.87;100.00
804;BME280;25687;49.976;8.240;2024-01-25T01:59:12;101269.09;;;6.83;100.00
804;BME280;25687;49.976;8.240;2024-01-25T02:01:38;101271.75;;;6.78;100.00
804;BME280;25687;49.976;8.240;2024-01-25T02:04:04;101265.13;;;6.68;100.00
804;BME280;25687;49.976;8.240;2024-01-25T02:06:30;101270.09;;;6.74;100.00
804;BME280;25687;49.976;8.240;2024-01-25T02:08:55;101265.81;;;6.76;100.00
804;BME280;25687;49.976;8.240;2024-01-25T02:11:26;101283.84;;;6.70;100.00
804;BME280;25687;49.976;8.240;2024-01-25T02:13:52;101268.38;;;6.76;100.00
804;BME280;25687;49.976;8.240;2024-01-25T02:16:17;101272.63;;;6.76;100.00
804;BME280;25687;49.976;8.240;2024-01-25T02:18:44;101258.97;;;6.78;100.00
804;BME280;25687;49.976;8.240;2024-01-25T02:21:09;101269.81;;;6.90;100.00
804;BME280;25687;49.976;8.240;2024-01-25T02:23:34;101267.78;;;7.04;100.00
804;BME280;25687;49.976;8.240;2024-01-25T02:25:59;101269.47;;;7.05;100.00
804;BME280;25687;49.976;8.240;2024-01-25T02:28:25;101270.44;;;7.01;100.00
804;BME280;25687;49.976;8.240;2024-01-25T02:30:50;101282.38;;;7.01;100.00
804;BME280;25687;49.976;8.240;2024-01-25T02:33:15;101277.50;;;6.90;100.00
804;BME280;25687;49.976;8.240;2024-01-25T02:35:41;101274.78;;;6.98;100.00
804;BME280;25687;49.976;8.240;2024-01-25T02:38:06;101275.47;;;7.04;100.00
804;BME280;25687;49.976;8.240;2024-01-25T02:40:31;101284.88;;;7.04;100.00
804;BME280;25687;49.976;8.240;2024-01-25T02:42:57;101284.06;;;7.02;100.00
804;BME280;25687;49.976;8.240;2024-01-25T02:45:23;101266.19;;;7.00;100.00
804;BME280;25687;49.976;8.240;2024-01-25T02:47:48;101271.09;;;7.11;100.00
804;BME280;25687;49.976;8.240;2024-01-25T02:50:14;101279.47;;;7.18;100.00
804;BME280;25687;49.976;8.240;2024-01-25T02:52:39;101270.22;;;7.12;100.00
804;BME280;25687;49.976;8.240;2024-01-25T02:55:05;101261.78;;;7.07;100.00
804;BME280;25687;49.976;8.240;2024-01-25T02:57:30;101267.72;;;7.09;100.00
804;BME280;25687;49.976;8.240;2024-01-25T02:59:56;101264.59;;;6.94;100.00
804;BME280;25687;49.976;8.240;2024-01-25T03:02:22;101264.44;;;7.02;100.00
804;BME280;25687;49.976;8.240;2024-01-25T03:04:47;101274.06;;;6.89;100.00
804;BME280;25687;49.976;8.240;2024-01-25T03:07:13;101274.19;;;6.85;100.00
804;BME280;25687;49.976;8.240;2024-01-25T03:09:38;101276.63;;;6.89;100.00
804;BME280;25687;49.976;8.240;2024-01-25T03:12:04;101273.22;;;6.90;100.00
804;BME280;25687;49.976;8.240;2024-01-25T03:14:29;101276.84;;;6.80;100.00
804;BME280;25687;49.976;8.240;2024-01-25T03:16:54;101274.97;;;6.87;100.00
804;BME280;25687;49.976;8.240;2024-01-25T03:19:20;101271.50;;;6.91;100.00
804;BME280;25687;49.976;8.240;2024-01-25T03:21:45;101279.94;;;6.96;100.00
804;BME280;25687;49.976;8.240;2024-01-25T03:24:10;101277.25;;;7.02;100.00
804;BME280;25687;49.976;8.240;2024-01-25T03:26:36;101276.25;;;7.09;100.00
804;BME280;25687;49.976;8.240;2024-01-25T03:29:01;101285.44;;;7.17;100.00
804;BME280;25687;49.976;8.240;2024-01-25T03:31:26;101287.59;;;7.35;100.00
804;BME280;25687;49.976;8.240;2024-01-25T03:33:51;101284.00;;;7.46;100.00
804;BME280;25687;49.976;8.240;2024-01-25T03:36:17;101289.03;;;7.49;100.00
804;BME280;25687;49.976;8.240;2024-01-25T03:42:04;101300.50;;;7.70;100.00
804;BME280;25687;49.976;8.240;2024-01-25T03:44:29;101305.56;;;7.71;100.00
804;BME280;25687;49.976;8.240;2024-01-25T03:46:54;101304.69;;;7.74;100.00
804;BME280;25687;49.976;8.240;2024-01-25T03:49:20;101307.97;;;7.79;100.00
804;BME280;25687;49.976;8.240;2024-01-25T03:51:47;101312.56;;;7.65;100.00
804;BME280;25687;49.976;8.240;2024-01-25T03:54:13;101310.63;;;7.74;100.00
804;BME280;25687;49.976;8.240;2024-01-25T03:56:38;101320.94;;;7.73;100.00
804;BME280;25687;49.976;8.240;2024-01-25T03:59:03;101317.63;;;7.68;100.00
804;BME280;25687;49.976;8.240;2024-01-25T04:01:29;101319.09;;;7.78;100.00
804;BME280;25687;49.976;8.240;2024-01-25T04:03:54;101339.44;;;7.84;100.00
804;BME280;25687;49.976;8.240;2024-01-25T04:06:19;101331.66;;;7.89;100.00
804;BME280;25687;49.976;8.240;2024-01-25T04:08:45;101334.13;;;7.92;100.00
804;BME280;25687;49.976;8.240;2024-01-25T04:11:10;101325.03;;;7.80;100.00
804;BME280;25687;49.976;8.240;2024-01-25T04:13:35;101331.91;;;7.78;100.00
804;BME280;25687;49.976;8.240;2024-01-25T04:16:01;101337.75;;;7.83;100.00
804;BME280;25687;49.976;8.240;2024-01-25T04:18:26;101337.09;;;7.75;100.00
804;BME280;25687;49.976;8.240;2024-01-25T04:20:51;101343.91;;;7.76;100.00
804;BME280;25687;49.976;8.240;2024-01-25T04:23:17;101339.78;;;7.69;100.00
804;BME280;25687;49.976;8.240;2024-01-25T04:25:42;101341.44;;;7.71;100.00
804;BME280;25687;49.976;8.240;2024-01-25T04:28:07;101338.03;;;7.71;100.00
804;BME280;25687;49.976;8.240;2024-01-25T04:30:33;101340.41;;;7.79;100.00
804;BME280;25687;49.976;8.240;2024-01-25T04:32:58;101337.16;;;7.72;100.00
804;BME280;25687;49.976;8.240;2024-01-25T04:35:24;101334.97;;;7.55;100.00
804;BME280;25687;49.976;8.240;2024-01-25T04:37:49;101329.16;;;7.48;100.00
804;BME280;25687;49.976;8.240;2024-01-25T04:40:14;101333.69;;;7.37;100.00
804;BME280;25687;49.976;8.240;2024-01-25T04:42:40;101349.91;;;7.34;100.00
804;BME280;25687;49.976;8.240;2024-01-25T04:45:06;101340.63;;;7.30;100.00
804;BME280;25687;49.976;8.240;2024-01-25T04:47:31;101344.03;;;7.31;100.00
804;BME280;25687;49.976;8.240;2024-01-25T04:49:56;101353.72;;;7.16;100.00
804;BME280;25687;49.976;8.240;2024-01-25T04:52:22;101340.13;;;7.13;100.00
804;BME280;25687;49.976;8.240;2024-01-25T04:54:47;101341.91;;;7.09;100.00
804;BME280;25687;49.976;8.240;2024-01-25T04:57:12;101347.06;;;7.07;100.00
804;BME280;25687;49.976;8.240;2024-01-25T04:59:37;101348.06;;;7.00;100.00
804;BME280;25687;49.976;8.240;2024-01-25T05:02:03;101356.84;;;6.87;100.00
804;BME280;25687;49.976;8.240;2024-01-25T05:04:28;101362.28;;;6.68;100.00
804;BME280;25687;49.976;8.240;2024-01-25T05:06:54;101375.19;;;6.62;100.00
804;BME280;25687;49.976;8.240;2024-01-25T05:09:20;101393.88;;;6.66;100.00
804;BME280;25687;49.976;8.240;2024-01-25T05:11:45;101398.88;;;6.72;100.00
804;BME280;25687;49.976;8.240;2024-01-25T05:14:10;101402.19;;;6.77;100.00
804;BME280;25687;49.976;8.240;2024-01-25T05:16:36;101403.97;;;6.73;100.00
804;BME280;25687;49.976;8.240;2024-01-25T05:19:01;101414.97;;;6.77;100.00
804;BME280;25687;49.976;8.240;2024-01-25T05:21:26;101413.06;;;6.88;100.00
804;BME280;25687;49.976;8.240;2024-01-25T05:23:52;101414.66;;;6.95;100.00
804;BME280;25687;49.976;8.240;2024-01-25T05:26:17;101419.75;;;6.95;100.00
804;BME280;25687;49.976;8.240;2024-01-25T05:28:42;101425.75;;;6.94;100.00
804;BME280;25687;49.976;8.240;2024-01-25T05:31:08;101414.88;;;6.83;100.00
804;BME280;25687;49.976;8.240;2024-01-25T05:33:38;101422.81;;;6.68;100.00
804;BME280;25687;49.976;8.240;2024-01-25T05:36:04;101422.06;;;6.61;100.00
804;BME280;25687;49.976;8.240;2024-01-25T05:38:31;101412.63;;;6.65;100.00
804;BME280;25687;49.976;8.240;2024-01-25T05:40:56;101419.47;;;6.64;100.00
804;BME280;25687;49.976;8.240;2024-01-25T05:43:21;101415.50;;;6.46;100.00
804;BME280;25687;49.976;8.240;2024-01-25T05:45:46;101414.47;;;6.58;100.00
804;BME280;25687;49.976;8.240;2024-01-25T05:48:12;101423.97;;;6.51;100.00
804;BME280;25687;49.976;8.240;2024-01-25T05:50:37;101425.66;;;6.51;100.00
804;BME280;25687;49.976;8.240;2024-01-25T05:53:02;101424.03;;;6.46;100.00
804;BME280;25687;49.976;8.240;2024-01-25T05:55:28;101423.06;;;6.54;100.00
804;BME280;25687;49.976;8.240;2024-01-25T05:57:53;101418.84;;;6.50;100.00
804;BME280;25687;49.976;8.240;2024-01-25T06:00:18;101421.50;;;6.45;100.00
804;BME280;25687;49.976;8.240;2024-01-25T06:02:44;101419.94;;;6.35;100.00
804;BME280;25687;49.976;8.240;2024-01-25T06:05:09;101423.44;;;6.27;100.00
804;BME280;25687;49.976;8.240;2024-01-25T06:07:35;101422.66;;;6.25;100.00
804;BME280;25687;49.976;8.240;2024-01-25T06:10:00;101422.94;;;6.05;100.00
804;BME280;25687;49.976;8.240;2024-01-25T06:12:26;101417.88;;;6.02;100.00
804;BME280;25687;49.976;8.240;2024-01-25T06:14:51;101423.19;;;5.87;100.00
804;BME280;25687;49.976;8.240;2024-01-25T06:17:17;101428.41;;;5.76;100.00
804;BME280;25687;49.976;8.240;2024-01-25T06:19:43;101421.47;;;5.84;100.00
804;BME280;25687;49.976;8.240;2024-01-25T06:22:08;101417.34;;;5.77;100.00
804;BME280;25687;49.976;8.240;2024-01-25T06:24:33;101418.38;;;5.63;100.00
804;BME280;25687;49.976;8.240;2024-01-25T06:26:58;101413.19;;;5.70;100.00
804;BME280;25687;49.976;8.240;2024-01-25T06:29:24;101422.63;;;5.64;100.00
804;BME280;25687;49.976;8.240;2024-01-25T06:31:49;101418.34;;;5.65;100.00
804;BME280;25687;49.976;8.240;2024-01-25T06:34:14;101434.53;;;5.64;100.00
804;BME280;25687;49.976;8.240;2024-01-25T06:36:39;101436.25;;;5.60;100.00
804;BME280;25687;49.976;8.240;2024-01-25T06:39:05;101438.91;;;5.53;100.00
804;BME280;25687;49.976;8.240;2024-01-25T06:41:31;101439.00;;;5.45;100.00
804;BME280;25687;49.976;8.240;2024-01-25T06:43:57;101432.19;;;5.45;100.00
804;BME280;25687;49.976;8.240;2024-01-25T06:46:22;101425.31;;;5.52;100.00
804;BME280;25687;49.976;8.240;2024-01-25T06:48:48;101413.44;;;5.48;100.00
804;BME280;25687;49.976;8.240;2024-01-25T06:51:14;101412.63;;;5.46;100.00
804;BME280;25687;49.976;8.240;2024-01-25T06:53:39;101412.72;;;5.40;100.00
804;BME280;25687;49.976;8.240;2024-01-25T06:56:05;101418.66;;;5.40;100.00
804;BME280;25687;49.976;8.240;2024-01-25T06:58:30;101415.41;;;5.26;100.00
804;BME280;25687;49.976;8.240;2024-01-25T07:00:55;101415.44;;;5.23;100.00
804;BME280;25687;49.976;8.240;2024-01-25T07:03:21;101423.97;;;5.20;100.00
804;BME280;25687;49.976;8.240;2024-01-25T07:05:46;101435.81;;;5.26;100.00
804;BME280;25687;49.976;8.240;2024-01-25T07:08:11;101439.34;;;5.14;100.00
804;BME280;25687;49.976;8.240;2024-01-25T07:10:41;101447.72;;;5.25;100.00
804;BME280;25687;49.976;8.240;2024-01-25T07:13:06;101456.19;;;5.30;100.00
804;BME280;25687;49.976;8.240;2024-01-25T07:15:31;101460.41;;;5.31;100.00
804;BME280;25687;49.976;8.240;2024-01-25T07:17:57;101454.38;;;5.40;100.00
804;BME280;25687;49.976;8.240;2024-01-25T07:20:22;101457.03;;;5.31;100.00
804;BME280;25687;49.976;8.240;2024-01-25T07:22:47;101455.28;;;5.33;100.00
804;BME280;25687;49.976;8.240;2024-01-25T07:25:13;101448.47;;;5.35;100.00
804;BME280;25687;49.976;8.240;2024-01-25T07:27:38;101446.56;;;5.53;100.00
804;BME280;25687;49.976;8.240;2024-01-25T07:30:04;101444.00;;;5.54;100.00
804;BME280;25687;49.976;8.240;2024-01-25T07:32:30;101449.88;;;5.62;100.00
804;BME280;25687;49.976;8.240;2024-01-25T07:34:57;101450.69;;;5.64;100.00
804;BME280;25687;49.976;8.240;2024-01-25T07:37:22;101450.69;;;5.63;100.00
804;BME280;25687;49.976;8.240;2024-01-25T07:39:48;101448.97;;;5.68;100.00
804;BME280;25687;49.976;8.240;2024-01-25T07:42:13;101455.00;;;5.59;100.00
804;BME280;25687;49.976;8.240;2024-01-25T07:44:38;101450.59;;;5.72;100.00
804;BME280;25687;49.976;8.240;2024-01-25T07:47:04;101443.59;;;5.85;100.00
804;BME280;25687;49.976;8.240;2024-01-25T07:49:29;101448.78;;;5.80;100.00
804;BME280;25687;49.976;8.240;2024-01-25T07:51:54;101444.50;;;5.82;100.00
804;BME280;25687;49.976;8.240;2024-01-25T07:54:22;101447.84;;;5.86;100.00
804;BME280;25687;49.976;8.240;2024-01-25T07:56:47;101434.25;;;5.86;100.00
804;BME280;25687;49.976;8.240;2024-01-25T07:59:12;101436.72;;;5.90;100.00
804;BME280;25687;49.976;8.240;2024-01-25T08:01:37;101436.66;;;5.95;100.00
804;BME280;25687;49.976;8.240;2024-01-25T08:04:03;101441.75;;;6.00;100.00
804;BME280;25687;49.976;8.240;2024-01-25T08:06:28;101443.28;;;6.11;100.00
804;BME280;25687;49.976;8.240;2024-01-25T08:08:54;101450.75;;;6.25;100.00
804;BME280;25687;49.976;8.240;2024-01-25T08:11:20;101457.47;;;6.33;100.00
804;BME280;25687;49.976;8.240;2024-01-25T08:13:45;101454.88;;;6.34;100.00
804;BME280;25687;49.976;8.240;2024-01-25T08:16:12;101464.25;;;6.35;100.00
804;BME280;25687;49.976;8.240;2024-01-25T08:18:39;101470.25;;;6.31;100.00
804;BME280;25687;49.976;8.240;2024-01-25T08:21:05;101477.03;;;6.34;100.00
804;BME280;25687;49.976;8.240;2024-01-25T08:23:30;101481.97;;;6.44;100.00
804;BME280;25687;49.976;8.240;2024-01-25T08:25:55;101483.53;;;6.56;100.00
804;BME280;25687;49.976;8.240;2024-01-25T08:28:20;101479.97;;;6.65;100.00
804;BME280;25687;49.976;8.240;2024-01-25T08:30:47;101471.91;;;6.88;100.00
804;BME280;25687;49.976;8.240;2024-01-25T08:33:13;101469.91;;;7.04;100.00
804;BME280;25687;49.976;8.240;2024-01-25T08:35:38;101468.13;;;7.11;100.00
804;BME280;25687;49.976;8.240;2024-01-25T08:38:06;101468.91;;;7.13;100.00
804;BME280;25687;49.976;8.240;2024-01-25T08:40:31;101474.78;;;7.20;100.00
804;BME280;25687;49.976;8.240;2024-01-25T08:42:56;101472.03;;;7.31;100.00
804;BME280;25687;49.976;8.240;2024-01-25T08:45:21;101478.44;;;7.50;100.00
804;BME280;25687;49.976;8.240;2024-01-25T08:47:47;101485.47;;;7.42;100.00
804;BME280;25687;49.976;8.240;2024-01-25T08:50:14;101485.31;;;7.50;100.00
804;BME280;25687;49.976;8.240;2024-01-25T08:52:39;101495.34;;;7.59;100.00
804;BME280;25687;49.976;8.240;2024-01-25T08:55:06;101494.16;;;7.77;100.00
804;BME280;25687;49.976;8.240;2024-01-25T08:57:32;101492.28;;;7.85;100.00
804;BME280;25687;49.976;8.240;2024-01-25T08:59:57;101493.03;;;7.90;100.00
804;BME280;25687;49.976;8.240;2024-01-25T09:02:26;101490.50;;;7.89;100.00
804;BME280;25687;49.976;8.240;2024-01-25T09:04:53;101481.75;;;7.99;100.00
804;BME280;25687;49.976;8.240;2024-01-25T09:07:19;101480.88;;;7.99;100.00
804;BME280;25687;49.976;8.240;2024-01-25T09:09:44;101480.38;;;8.22;100.00
804;BME280;25687;49.976;8.240;2024-01-25T09:12:09;101482.88;;;8.25;100.00
804;BME280;25687;49.976;8.240;2024-01-25T09:14:37;101476.63;;;8.37;100.00
804;BME280;25687;49.976;8.240;2024-01-25T09:17:03;101480.28;;;8.99;100.00
804;BME280;25687;49.976;8.240;2024-01-25T09:19:28;101485.19;;;10.01;100.00
804;BME280;25687;49.976;8.240;2024-01-25T09:21:53;101475.16;;;11.50;100.00
804;BME280;25687;49.976;8.240;2024-01-25T09:24:20;101477.31;;;12.94;100.00
804;BME280;25687;49.976;8.240;2024-01-25T09:26:45;101474.66;;;13.94;98.50
804;BME280;25687;49.976;8.240;2024-01-25T09:29:11;101479.13;;;14.09;95.50
804;BME280;25687;49.976;8.240;2024-01-25T09:31:36;101481.59;;;13.93;95.67
804;BME280;25687;49.976;8.240;2024-01-25T09:34:01;101492.31;;;13.85;94.62
804;BME280;25687;49.976;8.240;2024-01-25T09:36:27;101491.47;;;13.66;97.27
804;BME280;25687;49.976;8.240;2024-01-25T09:38:52;101491.19;;;13.72;97.71
804;BME280;25687;49.976;8.240;2024-01-25T09:41:17;101496.06;;;13.59;94.32
804;BME280;25687;49.976;8.240;2024-01-25T09:43:43;101489.28;;;13.56;96.71
804;BME280;25687;49.976;8.240;2024-01-25T09:46:13;101501.06;;;13.43;96.70
804;BME280;25687;49.976;8.240;2024-01-25T09:48:38;101500.75;;;13.51;97.03
804;BME280;25687;49.976;8.240;2024-01-25T09:51:05;101502.56;;;13.87;93.53
804;BME280;25687;49.976;8.240;2024-01-25T09:53:32;101496.56;;;14.23;89.26
804;BME280;25687;49.976;8.240;2024-01-25T09:56:05;101500.13;;;14.03;90.22
804;BME280;25687;49.976;8.240;2024-01-25T09:58:39;101497.72;;;13.98;90.80
804;BME280;25687;49.976;8.240;2024-01-25T10:01:10;101485.44;;;14.21;87.86
804;BME280;25687;49.976;8.240;2024-01-25T10:03:43;101504.44;;;13.64;91.27
804;BME280;25687;49.976;8.240;2024-01-25T10:06:10;101501.34;;;13.16;93.22
804;BME280;25687;49.976;8.240;2024-01-25T10:08:36;101500.00;;;14.24;91.16
804;BME280;25687;49.976;8.240;2024-01-25T10:11:02;101498.34;;;14.03;89.17
804;BME280;25687;49.976;8.240;2024-01-25T10:13:28;101503.09;;;14.49;86.55
804;BME280;25687;49.976;8.240;2024-01-25T10:15:53;101510.84;;;14.49;87.83
804;BME280;25687;49.976;8.240;2024-01-25T10:18:19;101502.88;;;14.54;87.56
804;BME280;25687;49.976;8.240;2024-01-25T10:20:45;101504.19;;;14.98;85.19
804;BME280;25687;49.976;8.240;2024-01-25T10:23:10;101508.00;;;14.91;83.46
804;BME280;25687;49.976;8.240;2024-01-25T10:25:36;101496.00;;;14.35;85.55
804;BME280;25687;49.976;8.240;2024-01-25T10:28:06;101497.19;;;13.53;90.49
804;BME280;25687;49.976;8.240;2024-01-25T10:30:33;101507.34;;;12.75;97.23
804;BME280;25687;49.976;8.240;2024-01-25T10:33:00;101510.88;;;12.30;100.00
804;BME280;25687;49.976;8.240;2024-01-25T10:35:26;101515.28;;;11.81;100.00
804;BME280;25687;49.976;8.240;2024-01-25T10:37:52;101517.38;;;11.94;100.00
804;BME280;25687;49.976;8.240;2024-01-25T10:40:20;101503.75;;;11.91;100.00
804;BME280;25687;49.976;8.240;2024-01-25T10:42:46;101507.44;;;11.84;100.00
804;BME280;25687;49.976;8.240;2024-01-25T10:45:12;101514.69;;;11.50;100.00
804;BME280;25687;49.976;8.240;2024-01-25T10:47:38;101512.00;;;11.28;100.00
804;BME280;25687;49.976;8.240;2024-01-25T10:50:06;101510.22;;;11.30;100.00
804;BME280;25687;49.976;8.240;2024-01-25T10:52:34;101512.59;;;10.86;100.00
804;BME280;25687;49.976;8.240;2024-01-25T10:55:01;101501.19;;;10.66;100.00
804;BME280;25687;49.976;8.240;2024-01-25T10:57:26;101505.66;;;10.61;100.00
804;BME280;25687;49.976;8.240;2024-01-25T10:59:59;101510.69;;;10.91;100.00
804;BME280;25687;49.976;8.240;2024-01-25T11:02:25;101505.47;;;10.92;100.00
804;BME280;25687;49.976;8.240;2024-01-25T11:04:54;101506.69;;;10.82;100.00
804;BME280;25687;49.976;8.240;2024-01-25T11:07:20;101504.09;;;11.09;100.00
804;BME280;25687;49.976;8.240;2024-01-25T11:09:47;101509.72;;;11.20;100.00
804;BME280;25687;49.976;8.240;2024-01-25T11:12:17;101506.50;;;10.88;100.00
804;BME280;25687;49.976;8.240;2024-01-25T11:14:43;101499.56;;;10.90;100.00
804;BME280;25687;49.976;8.240;2024-01-25T11:17:23;101490.59;;;10.75;100.00
804;BME280;25687;49.976;8.240;2024-01-25T11:19:49;101485.91;;;10.88;100.00
804;BME280;25687;49.976;8.240;2024-01-25T11:22:15;101479.00;;;10.89;100.00
804;BME280;25687;49.976;8.240;2024-01-25T11:24:41;101477.06;;;10.95;100.00
804;BME280;25687;49.976;8.240;2024-01-25T11:27:09;101472.84;;;10.68;100.00
804;BME280;25687;49.976;8.240;2024-01-25T11:29:35;101472.13;;;10.89;100.00
804;BME280;25687;49.976;8.240;2024-01-25T11:32:03;101482.94;;;11.24;100.00
804;BME280;25687;49.976;8.240;2024-01-25T11:34:30;101463.47;;;11.41;100.00
804;BME280;25687;49.976;8.240;2024-01-25T11:36:56;101459.47;;;11.56;100.00
804;BME280;25687;49.976;8.240;2024-01-25T11:39:23;101464.59;;;11.57;99.10
804;BME280;25687;49.976;8.240;2024-01-25T11:41:50;101465.28;;;11.39;96.60
804;BME280;25687;49.976;8.240;2024-01-25T11:44:16;101461.69;;;11.43;97.92
804;BME280;25687;49.976;8.240;2024-01-25T11:46:42;101459.41;;;11.34;98.07
804;BME280;25687;49.976;8.240;2024-01-25T11:49:08;101460.84;;;11.42;98.13
804;BME280;25687;49.976;8.240;2024-01-25T11:51:33;101454.84;;;11.42;97.12
804;BME280;25687;49.976;8.240;2024-01-25T11:53:59;101453.84;;;11.70;97.64
804;BME280;25687;49.976;8.240;2024-01-25T11:56:28;101456.97;;;11.30;97.34
804;BME280;25687;49.976;8.240;2024-01-25T11:58:55;101454.28;;;11.57;97.96
804;BME280;25687;49.976;8.240;2024-01-25T12:01:25;101457.53;;;11.62;96.03
804;BME280;25687;49.976;8.240;2024-01-25T12:03:50;101457.09;;;11.51;96.77
804;BME280;25687;49.976;8.240;2024-01-25T12:06:17;101453.66;;;11.51;95.90
804;BME280;25687;49.976;8.240;2024-01-25T12:08:42;101443.53;;;11.70;94.88
804;BME280;25687;49.976;8.240;2024-01-25T12:11:09;101431.94;;;11.80;95.12
804;BME280;25687;49.976;8.240;2024-01-25T12:13:35;101427.72;;;11.55;95.31
804;BME280;25687;49.976;8.240;2024-01-25T12:16:02;101424.78;;;11.42;96.43
804;BME280;25687;49.976;8.240;2024-01-25T12:18:28;101414.06;;;11.53;96.13
804;BME280;25687;49.976;8.240;2024-01-25T12:20:54;101408.34;;;11.69;95.64
804;BME280;25687;49.976;8.240;2024-01-25T12:23:20;101409.94;;;11.71;94.71
804;BME280;25687;49.976;8.240;2024-01-25T12:25:45;101405.38;;;11.56;94.96
804;BME280;25687;49.976;8.240;2024-01-25T12:28:11;101401.41;;;11.47;95.34
804;BME280;25687;49.976;8.240;2024-01-25T12:30:36;101398.88;;;11.45;95.37
804;BME280;25687;49.976;8.240;2024-01-25T12:33:01;101396.31;;;11.45;94.42
804;BME280;25687;49.976;8.240;2024-01-25T12:35:26;101395.75;;;11.37;93.21
804;BME280;25687;49.976;8.240;2024-01-25T12:37:52;101400.06;;;11.13;94.47
804;BME280;25687;49.976;8.240;2024-01-25T12:40:17;101383.66;;;11.16;95.33
804;BME280;25687;49.976;8.240;2024-01-25T12:42:42;101387.56;;;11.26;96.22
804;BME280;25687;49.976;8.240;2024-01-25T12:45:08;101382.88;;;11.37;96.87
804;BME280;25687;49.976;8.240;2024-01-25T12:47:34;101382.75;;;11.40;97.07
804;BME280;25687;49.976;8.240;2024-01-25T12:49:59;101380.66;;;11.28;98.93
804;BME280;25687;49.976;8.240;2024-01-25T12:52:24;101380.50;;;11.09;100.00
804;BME280;25687;49.976;8.240;2024-01-25T12:54:49;101372.72;;;10.85;100.00
804;BME280;25687;49.976;8.240;2024-01-25T12:57:15;101371.06;;;10.84;100.00
804;BME280;25687;49.976;8.240;2024-01-25T12:59:40;101373.88;;;11.02;100.00
804;BME280;25687;49.976;8.240;2024-01-25T13:02:07;101375.81;;;11.19;100.00
804;BME280;25687;49.976;8.240;2024-01-25T13:04:32;101367.88;;;11.01;100.00